sensor_id;sensor_type;location;lat;lon;timestamp;temperature;humidity
31131;DHT22;20292;50.944;4.034;2022-12-16T00:00:28;0.30;99.90
31131;DHT22;20292;50.944;4.034;2022-12-16T00:02:54;0.20;99.90
31131;DHT22;20292;50.944;4.034;2022-12-16T00:05:19;0.20;99.90
31131;DHT22;20292;50.944;4.034;2022-12-16T00:07:46;0.10;99.90
31131;DHT22;20292;50.944;4.034;2022-12-16T00:10:12;0.10;99.90
31131;DHT22;20292;50.944;4.034;2022-12-16T00:12:38;0.00;99.90
31131;DHT22;20292;50.944;4.034;2022-12-16T00:15:04;0.10;99.90
31131;DHT22;20292;50.944;4.034;2022-12-16T00:17:29;0.00;99.90
31131;DHT22;20292;50.944;4.034;2022-12-16T00:19:55;0.00;99.90
31131;DHT22;20292;50.944;4.034;2022-12-16T00:22:21;0.00;99.90
31131;DHT22;20292;50.944;4.034;2022-12-16T00:24:47;0.00;99.90
31131;DHT22;20292;50.944;4.034;2022-12-16T00:27:13;0.10;99.90
31131;DHT22;20292;50.944;4.034;2022-12-16T00:29:38;0.10;99.90
31131;DHT22;20292;50.944;4.034;2022-12-16T00:32:04;0.10;99.90
31131;DHT22;20292;50.944;4.034;2022-12-16T00:34:30;0.10;99.90
31131;DHT22;20292;50.944;4.034;2022-12-16T00:36:56;0.10;99.90
31131;DHT22;20292;50.944;4.034;2022-12-16T00:39:22;0.10;99.90
31131;DHT22;20292;50.944;4.034;2022-12-16T00:41:47;0.20;99.90
31131;DHT22;20292;50.944;4.034;2022-12-16T00:44:13;0.20;99.90
31131;DHT22;20292;50.944;4.034;2022-12-16T00:46:38;0.20;99.90
31131;DHT22;20292;50.944;4.034;2022-12-16T00:49:04;0.20;99.90
31131;DHT22;20292;50.944;4.034;2022-12-16T00:51:30;0.10;99.90
31131;DHT22;20292;50.944;4.034;2022-12-16T00:53:56;0.20;99.90
31131;DHT22;20292;50.944;4.034;2022-12-16T00:56:22;0.10;99.90
31131;DHT22;20292;50.944;4.034;2022-12-16T00:58:47;0.10;99.90
31131;DHT22;20292;50.944;4.034;2022-12-16T01:01:13;0.20;99.90
31131;DHT22;20292;50.944;4.034;2022-12-16T01:03:39;0.10;99.90
31131;DHT22;20292;50.944;4.034;2022-12-16T01:06:14;0.10;99.90
31131;DHT22;20292;50.944;4.034;2022-12-16T01:08:39;0.10;99.90
31131;DHT22;20292;50.944;4.034;2022-12-16T01:11:05;0.10;99.90
31131;DHT22;20292;50.944;4.034;2022-12-16T01:13:31;0.10;99.90
31131;DHT22;20292;50.944;4.034;2022-12-16T01:16:03;0.10;99.90
31131;DHT22;20292;50.944;4.034;2022-12-16T01:18:28;0.00;99.90
31131;DHT22;20292;50.944;4.034;2022-12-16T01:21:04;0.10;99.90
31131;DHT22;20292;50.944;4.034;2022-12-16T01:23:30;0.10;99.90
31131;DHT22;20292;50.944;4.034;2022-12-16T01:25:57;0.10;99.90
31131;DHT22;20292;50.944;4.034;2022-12-16T01:28:23;0.20;99.90
31131;DHT22;20292;50.944;4.034;2022-12-16T01:30:57;0.30;99.90
31131;DHT22;20292;50.944;4.034;2022-12-16T01:33:29;0.30;99.90
31131;DHT22;20292;50.944;4.034;2022-12-16T01:36:05;0.30;99.90
31131;DHT22;20292;50.944;4.034;2022-12-16T01:38:31;0.30;99.90
31131;DHT22;20292;50.944;4.034;2022-12-16T01:40:57;0.30;99.90
31131;DHT22;20292;50.944;4.034;2022-12-16T01:43:26;0.20;99.90
31131;DHT22;20292;50.944;4.034;2022-12-16T01:45:57;0.10;99.90
31131;DHT22;20292;50.944;4.034;2022-12-16T01:51:07;0.00;99.90
31131;DHT22;20292;50.944;4.034;2022-12-16T01:53:37;0.00;99.90
31131;DHT22;20292;50.944;4.034;2022-12-16T01:56:04;0.00;99.90
31131;DHT22;20292;50.944;4.034;2022-12-16T01:58:33;0.00;99.90
31131;DHT22;20292;50.944;4.034;2022-12-16T02:00:59;0.00;99.90
31131;DHT22;20292;50.944;4.034;2022-12-16T02:03:29;0.00;99.90
31131;DHT22;20292;50.944;4.034;2022-12-16T02:05:56;0.00;99.90
31131;DHT22;20292;50.944;4.034;2022-12-16T02:08:23;0.00;99.90
31131;DHT22;20292;50.944;4.034;2022-12-16T02:11:13;0.20;99.90
31131;DHT22;20292;50.944;4.034;2022-12-16T02:13:59;0.10;99.90
31131;DHT22;20292;50.944;4.034;2022-12-16T02:28:08;0.40;99.90
31131;DHT22;20292;50.944;4.034;2022-12-16T02:30:58;0.50;99.90
31131;DHT22;20292;50.944;4.034;2022-12-16T02:33:40;0.50;99.90
31131;DHT22;20292;50.944;4.034;2022-12-16T02:36:21;0.60;99.90
31131;DHT22;20292;50.944;4.034;2022-12-16T02:39:03;0.70;99.90
31131;DHT22;20292;50.944;4.034;2022-12-16T02:44:03;0.90;99.90
31131;DHT22;20292;50.944;4.034;2022-12-16T02:46:32;1.00;99.90
31131;DHT22;20292;50.944;4.034;2022-12-16T02:49:06;1.00;99.90
31131;DHT22;20292;50.944;4.034;2022-12-16T02:51:33;1.10;99.90
31131;DHT22;20292;50.944;4.034;2022-12-16T02:54:01;1.10;99.90
31131;DHT22;20292;50.944;4.034;2022-12-16T02:59:13;1.20;99.90
31131;DHT22;20292;50.944;4.034;2022-12-16T03:04:34;1.20;99.90
31131;DHT22;20292;50.944;4.034;2022-12-16T03:07:01;1.30;99.90
31131;DHT22;20292;50.944;4.034;2022-12-16T03:09:31;1.30;99.90
31131;DHT22;20292;50.944;4.034;2022-12-16T03:12:00;1.30;99.90
31131;DHT22;20292;50.944;4.034;2022-12-16T03:14:31;1.30;99.90
31131;DHT22;20292;50.944;4.034;2022-12-16T03:16:58;1.20;99.90
31131;DHT22;20292;50.944;4.034;2022-12-16T03:19:25;1.20;99.90
31131;DHT22;20292;50.944;4.034;2022-12-16T03:24:36;0.70;99.90
31131;DHT22;20292;50.944;4.034;2022-12-16T03:29:55;0.80;99.90
31131;DHT22;20292;50.944;4.034;2022-12-16T03:32:40;1.00;99.90
31131;DHT22;20292;50.944;4.034;2022-12-16T03:35:19;0.90;99.90
31131;DHT22;20292;50.944;4.034;2022-12-16T03:37:49;1.10;99.90
31131;DHT22;20292;50.944;4.034;2022-12-16T03:40:15;1.10;99.90
31131;DHT22;20292;50.944;4.034;2022-12-16T03:42:42;1.20;99.90
31131;DHT22;20292;50.944;4.034;2022-12-16T03:45:13;1.30;99.90
31131;DHT22;20292;50.944;4.034;2022-12-16T03:47:41;1.30;99.90
31131;DHT22;20292;50.944;4.034;2022-12-16T03:50:07;1.40;99.90
31131;DHT22;20292;50.944;4.034;2022-12-16T03:52:33;1.40;99.90
31131;DHT22;20292;50.944;4.034;2022-12-16T03:54:59;1.50;99.90
31131;DHT22;20292;50.944;4.034;2022-12-16T03:57:25;1.60;99.90
31131;DHT22;20292;50.944;4.034;2022-12-16T03:59:51;1.60;99.90
31131;DHT22;20292;50.944;4.034;2022-12-16T04:02:17;1.70;99.90
31131;DHT22;20292;50.944;4.034;2022-12-16T04:04:42;1.70;99.90
31131;DHT22;20292;50.944;4.034;2022-12-16T04:07:08;1.80;99.90
31131;DHT22;20292;50.944;4.034;2022-12-16T04:09:49;1.80;99.90
31131;DHT22;20292;50.944;4.034;2022-12-16T04:12:15;1.80;99.90
31131;DHT22;20292;50.944;4.034;2022-12-16T04:14:59;1.90;99.90
31131;DHT22;20292;50.944;4.034;2022-12-16T04:17:43;1.90;99.90
31131;DHT22;20292;50.944;4.034;2022-12-16T04:20:38;1.90;99.90
31131;DHT22;20292;50.944;4.034;2022-12-16T04:23:25;1.90;99.90
31131;DHT22;20292;50.944;4.034;2022-12-16T04:26:10;2.00;99.90
31131;DHT22;20292;50.944;4.034;2022-12-16T04:28:36;1.90;99.90
31131;DHT22;20292;50.944;4.034;2022-12-16T04:31:02;1.90;99.90
31131;DHT22;20292;50.944;4.034;2022-12-16T04:33:28;2.00;99.90
31131;DHT22;20292;50.944;4.034;2022-12-16T04:36:12;2.00;99.90
31131;DHT22;20292;50.944;4.034;2022-12-16T04:38:56;2.00;99.90
31131;DHT22;20292;50.944;4.034;2022-12-16T04:41:40;1.90;99.90
31131;DHT22;20292;50.944;4.034;2022-12-16T04:44:24;1.90;99.90
31131;DHT22;20292;50.944;4.034;2022-12-16T04:47:08;1.90;99.90
31131;DHT22;20292;50.944;4.034;2022-12-16T04:49:52;1.90;99.90
31131;DHT22;20292;50.944;4.034;2022-12-16T04:52:37;1.90;99.90
31131;DHT22;20292;50.944;4.034;2022-12-16T04:55:20;1.80;99.90
31131;DHT22;20292;50.944;4.034;2022-12-16T04:58:05;1.70;99.90
31131;DHT22;20292;50.944;4.034;2022-12-16T05:00:49;1.60;99.90
31131;DHT22;20292;50.944;4.034;2022-12-16T05:03:34;1.50;99.90
31131;DHT22;20292;50.944;4.034;2022-12-16T05:06:19;1.40;99.90
31131;DHT22;20292;50.944;4.034;2022-12-16T05:09:03;1.30;99.90
31131;DHT22;20292;50.944;4.034;2022-12-16T05:11:48;1.30;99.90
31131;DHT22;20292;50.944;4.034;2022-12-16T05:14:33;1.20;99.90
31131;DHT22;20292;50.944;4.034;2022-12-16T05:17:19;1.20;99.90
31131;DHT22;20292;50.944;4.034;2022-12-16T05:20:04;1.10;99.90
31131;DHT22;20292;50.944;4.034;2022-12-16T05:22:49;1.10;99.90
31131;DHT22;20292;50.944;4.034;2022-12-16T05:25:33;1.00;99.90
31131;DHT22;20292;50.944;4.034;2022-12-16T05:28:17;1.00;99.90
31131;DHT22;20292;50.944;4.034;2022-12-16T05:31:01;1.00;99.90
31131;DHT22;20292;50.944;4.034;2022-12-16T05:33:45;0.90;99.90
31131;DHT22;20292;50.944;4.034;2022-12-16T05:36:29;0.90;99.90
31131;DHT22;20292;50.944;4.034;2022-12-16T05:39:13;0.80;99.90
31131;DHT22;20292;50.944;4.034;2022-12-16T05:41:57;0.80;99.90
31131;DHT22;20292;50.944;4.034;2022-12-16T05:44:41;0.80;99.90
31131;DHT22;20292;50.944;4.034;2022-12-16T05:47:26;0.70;99.90
31131;DHT22;20292;50.944;4.034;2022-12-16T05:50:11;0.70;99.90
31131;DHT22;20292;50.944;4.034;2022-12-16T05:52:55;0.60;99.90
31131;DHT22;20292;50.944;4.034;2022-12-16T05:55:40;0.60;99.90
31131;DHT22;20292;50.944;4.034;2022-12-16T05:58:25;0.60;99.90
31131;DHT22;20292;50.944;4.034;2022-12-16T06:01:09;0.60;99.90
31131;DHT22;20292;50.944;4.034;2022-12-16T06:03:53;0.60;99.90
31131;DHT22;20292;50.944;4.034;2022-12-16T06:06:38;0.60;99.90
31131;DHT22;20292;50.944;4.034;2022-12-16T06:09:22;0.50;99.90
31131;DHT22;20292;50.944;4.034;2022-12-16T06:12:06;0.60;99.90
31131;DHT22;20292;50.944;4.034;2022-12-16T06:14:50;0.60;99.90
31131;DHT22;20292;50.944;4.034;2022-12-16T06:17:35;0.60;99.90
31131;DHT22;20292;50.944;4.034;2022-12-16T06:20:19;0.60;99.90
31131;DHT22;20292;50.944;4.034;2022-12-16T06:23:03;0.50;99.90
31131;DHT22;20292;50.944;4.034;2022-12-16T06:25:47;0.60;99.90
31131;DHT22;20292;50.944;4.034;2022-12-16T06:28:31;0.50;99.90
31131;DHT22;20292;50.944;4.034;2022-12-16T06:31:15;0.50;99.90
31131;DHT22;20292;50.944;4.034;2022-12-16T06:33:59;0.50;99.90
31131;DHT22;20292;50.944;4.034;2022-12-16T06:36:44;0.50;99.90
31131;DHT22;20292;50.944;4.034;2022-12-16T06:39:28;0.50;99.90
31131;DHT22;20292;50.944;4.034;2022-12-16T06:42:12;0.50;99.90
31131;DHT22;20292;50.944;4.034;2022-12-16T06:44:56;0.50;99.90
31131;DHT22;20292;50.944;4.034;2022-12-16T06:47:42;0.40;99.90
31131;DHT22;20292;50.944;4.034;2022-12-16T06:50:27;0.40;99.90
31131;DHT22;20292;50.944;4.034;2022-12-16T06:53:11;0.40;99.90
31131;DHT22;20292;50.944;4.034;2022-12-16T06:55:55;0.30;99.90
31131;DHT22;20292;50.944;4.034;2022-12-16T06:58:40;0.30;99.90
31131;DHT22;20292;50.944;4.034;2022-12-16T07:01:24;0.40;99.90
31131;DHT22;20292;50.944;4.034;2022-12-16T07:04:08;0.40;99.90
31131;DHT22;20292;50.944;4.034;2022-12-16T07:06:52;0.40;99.90
31131;DHT22;20292;50.944;4.034;2022-12-16T07:09:36;0.40;99.90
31131;DHT22;20292;50.944;4.034;2022-12-16T07:12:20;0.40;99.90
31131;DHT22;20292;50.944;4.034;2022-12-16T07:15:04;0.40;99.90
31131;DHT22;20292;50.944;4.034;2022-12-16T07:17:48;0.40;99.90
31131;DHT22;20292;50.944;4.034;2022-12-16T07:20:32;0.40;99.90
31131;DHT22;20292;50.944;4.034;2022-12-16T07:23:16;0.40;99.90
31131;DHT22;20292;50.944;4.034;2022-12-16T07:26:00;0.40;99.90
31131;DHT22;20292;50.944;4.034;2022-12-16T07:28:45;0.40;99.90
31131;DHT22;20292;50.944;4.034;2022-12-16T07:31:28;0.40;99.90
31131;DHT22;20292;50.944;4.034;2022-12-16T07:34:12;0.40;99.90
31131;DHT22;20292;50.944;4.034;2022-12-16T07:36:57;0.40;99.90
31131;DHT22;20292;50.944;4.034;2022-12-16T07:39:41;0.40;99.90
31131;DHT22;20292;50.944;4.034;2022-12-16T07:42:25;0.50;99.90
31131;DHT22;20292;50.944;4.034;2022-12-16T07:45:09;0.40;99.90
31131;DHT22;20292;50.944;4.034;2022-12-16T07:47:54;0.40;99.90
31131;DHT22;20292;50.944;4.034;2022-12-16T07:50:38;0.40;99.90
31131;DHT22;20292;50.944;4.034;2022-12-16T07:53:23;0.50;99.90
31131;DHT22;20292;50.944;4.034;2022-12-16T07:56:08;0.50;99.90
31131;DHT22;20292;50.944;4.034;2022-12-16T07:58:52;0.60;99.90
31131;DHT22;20292;50.944;4.034;2022-12-16T08:01:36;0.60;99.90
31131;DHT22;20292;50.944;4.034;2022-12-16T08:04:20;0.70;99.90
31131;DHT22;20292;50.944;4.034;2022-12-16T08:07:05;0.70;99.90
31131;DHT22;20292;50.944;4.034;2022-12-16T08:09:49;0.70;99.90
31131;DHT22;20292;50.944;4.034;2022-12-16T08:12:33;0.80;99.90
31131;DHT22;20292;50.944;4.034;2022-12-16T08:15:17;0.90;99.90
31131;DHT22;20292;50.944;4.034;2022-12-16T08:18:02;1.00;99.90
31131;DHT22;20292;50.944;4.034;2022-12-16T08:20:46;1.00;99.90
31131;DHT22;20292;50.944;4.034;2022-12-16T08:23:30;1.00;99.90
31131;DHT22;20292;50.944;4.034;2022-12-16T08:26:14;1.10;99.90
31131;DHT22;20292;50.944;4.034;2022-12-16T08:28:58;1.00;99.90
31131;DHT22;20292;50.944;4.034;2022-12-16T08:31:42;1.00;99.90
31131;DHT22;20292;50.944;4.034;2022-12-16T08:34:27;1.00;99.90
31131;DHT22;20292;50.944;4.034;2022-12-16T08:37:11;1.00;99.90
31131;DHT22;20292;50.944;4.034;2022-12-16T08:39:55;1.00;99.90
31131;DHT22;20292;50.944;4.034;2022-12-16T08:42:39;1.10;99.90
31131;DHT22;20292;50.944;4.034;2022-12-16T08:45:23;1.20;99.90
31131;DHT22;20292;50.944;4.034;2022-12-16T08:48:08;1.20;99.90
31131;DHT22;20292;50.944;4.034;2022-12-16T08:50:54;1.20;99.90
31131;DHT22;20292;50.944;4.034;2022-12-16T08:53:38;1.30;99.90
31131;DHT22;20292;50.944;4.034;2022-12-16T08:56:22;1.40;99.90
31131;DHT22;20292;50.944;4.034;2022-12-16T08:59:06;1.40;99.90
31131;DHT22;20292;50.944;4.034;2022-12-16T09:01:50;1.50;99.90
31131;DHT22;20292;50.944;4.034;2022-12-16T09:04:34;1.50;99.90
31131;DHT22;20292;50.944;4.034;2022-12-16T09:07:18;1.60;99.90
31131;DHT22;20292;50.944;4.034;2022-12-16T09:10:03;1.60;99.90
31131;DHT22;20292;50.944;4.034;2022-12-16T09:12:47;1.70;99.90
31131;DHT22;20292;50.944;4.034;2022-12-16T09:15:31;1.70;99.90
31131;DHT22;20292;50.944;4.034;2022-12-16T09:18:15;1.80;99.90
31131;DHT22;20292;50.944;4.034;2022-12-16T09:21:00;1.80;99.90
31131;DHT22;20292;50.944;4.034;2022-12-16T09:23:44;1.70;99.90
31131;DHT22;20292;50.944;4.034;2022-12-16T09:26:28;1.90;99.90
31131;DHT22;20292;50.944;4.034;2022-12-16T09:29:13;1.90;99.90
31131;DHT22;20292;50.944;4.034;2022-12-16T09:31:57;2.00;99.90
31131;DHT22;20292;50.944;4.034;2022-12-16T09:34:41;2.10;99.90
31131;DHT22;20292;50.944;4.034;2022-12-16T09:37:25;2.10;99.90
31131;DHT22;20292;50.944;4.034;2022-12-16T09:40:15;2.20;99.90
31131;DHT22;20292;50.944;4.034;2022-12-16T09:49:34;2.40;99.90
31131;DHT22;20292;50.944;4.034;2022-12-16T09:52:23;2.40;99.90
31131;DHT22;20292;50.944;4.034;2022-12-16T09:55:22;2.50;99.90
31131;DHT22;20292;50.944;4.034;2022-12-16T09:58:08;2.50;99.90
31131;DHT22;20292;50.944;4.034;2022-12-16T10:00:54;2.50;99.90
31131;DHT22;20292;50.944;4.034;2022-12-16T10:03:39;2.60;99.90
31131;DHT22;20292;50.944;4.034;2022-12-16T10:06:43;2.70;99.90
31131;DHT22;20292;50.944;4.034;2022-12-16T10:12:18;2.80;99.90
31131;DHT22;20292;50.944;4.034;2022-12-16T10:18:15;2.80;99.90
31131;DHT22;20292;50.944;4.034;2022-12-16T10:21:03;2.90;99.90
31131;DHT22;20292;50.944;4.034;2022-12-16T10:26:54;2.90;99.90
31131;DHT22;20292;50.944;4.034;2022-12-16T10:29:42;2.90;99.90
31131;DHT22;20292;50.944;4.034;2022-12-16T10:32:48;3.00;99.90
31131;DHT22;20292;50.944;4.034;2022-12-16T10:35:45;3.20;99.90
31131;DHT22;20292;50.944;4.034;2022-12-16T10:41:18;3.00;99.90
31131;DHT22;20292;50.944;4.034;2022-12-16T10:44:27;3.10;99.90
31131;DHT22;20292;50.944;4.034;2022-12-16T10:47:12;3.00;99.90
31131;DHT22;20292;50.944;4.034;2022-12-16T10:49:57;3.10;99.90
31131;DHT22;20292;50.944;4.034;2022-12-16T10:53:13;3.10;99.90
31131;DHT22;20292;50.944;4.034;2022-12-16T10:56:21;3.10;99.90
31131;DHT22;20292;50.944;4.034;2022-12-16T10:59:07;3.20;99.90
31131;DHT22;20292;50.944;4.034;2022-12-16T11:02:00;3.20;99.90
31131;DHT22;20292;50.944;4.034;2022-12-16T11:04:46;3.30;99.90
31131;DHT22;20292;50.944;4.034;2022-12-16T11:07:33;3.30;99.90
31131;DHT22;20292;50.944;4.034;2022-12-16T11:10:22;3.30;99.90
31131;DHT22;20292;50.944;4.034;2022-12-16T11:13:34;3.20;99.90
31131;DHT22;20292;50.944;4.034;2022-12-16T11:16:20;3.30;99.90
31131;DHT22;20292;50.944;4.034;2022-12-16T11:22:11;3.20;99.90
31131;DHT22;20292;50.944;4.034;2022-12-16T11:25:22;3.40;99.90
31131;DHT22;20292;50.944;4.034;2022-12-16T11:28:12;3.40;99.90
31131;DHT22;20292;50.944;4.034;2022-12-16T11:30:58;3.40;99.90
31131;DHT22;20292;50.944;4.034;2022-12-16T11:33:44;3.50;99.90
31131;DHT22;20292;50.944;4.034;2022-12-16T11:36:31;3.40;99.90
31131;DHT22;20292;50.944;4.034;2022-12-16T11:39:20;3.40;99.90
31131;DHT22;20292;50.944;4.034;2022-12-16T11:42:05;3.40;99.90
31131;DHT22;20292;50.944;4.034;2022-12-16T11:44:57;3.50;99.90
31131;DHT22;20292;50.944;4.034;2022-12-16T11:50:40;3.70;99.90
31131;DHT22;20292;50.944;4.034;2022-12-16T11:53:35;3.80;99.90
31131;DHT22;20292;50.944;4.034;2022-12-16T11:56:25;4.00;99.90
31131;DHT22;20292;50.944;4.034;2022-12-16T11:59:31;4.10;99.90
31131;DHT22;20292;50.944;4.034;2022-12-16T12:02:39;4.00;99.90
31131;DHT22;20292;50.944;4.034;2022-12-16T12:05:36;4.00;99.90
31131;DHT22;20292;50.944;4.034;2022-12-16T12:08:24;4.10;99.90
31131;DHT22;20292;50.944;4.034;2022-12-16T12:17:39;4.40;99.90
31131;DHT22;20292;50.944;4.034;2022-12-16T12:20:53;4.50;99.90
31131;DHT22;20292;50.944;4.034;2022-12-16T12:26:47;4.70;99.90
31131;DHT22;20292;50.944;4.034;2022-12-16T12:35:56;4.60;99.90
31131;DHT22;20292;50.944;4.034;2022-12-16T12:48:21;4.60;99.90
31131;DHT22;20292;50.944;4.034;2022-12-16T12:51:14;4.80;99.90
31131;DHT22;20292;50.944;4.034;2022-12-16T12:56:58;4.60;99.90
31131;DHT22;20292;50.944;4.034;2022-12-16T13:02:40;4.60;99.90
31131;DHT22;20292;50.944;4.034;2022-12-16T13:05:28;4.60;99.90
31131;DHT22;20292;50.944;4.034;2022-12-16T13:11:21;4.60;99.90
31131;DHT22;20292;50.944;4.034;2022-12-16T13:14:50;4.50;99.90
31131;DHT22;20292;50.944;4.034;2022-12-16T13:17:28;4.60;99.90
31131;DHT22;20292;50.944;4.034;2022-12-16T13:20:36;4.60;99.90
31131;DHT22;20292;50.944;4.034;2022-12-16T13:26:20;4.60;99.90
31131;DHT22;20292;50.944;4.034;2022-12-16T13:29:26;4.60;99.90
31131;DHT22;20292;50.944;4.034;2022-12-16T13:32:15;4.70;99.90
31131;DHT22;20292;50.944;4.034;2022-12-16T13:35:02;4.60;99.90
31131;DHT22;20292;50.944;4.034;2022-12-16T13:41:48;5.00;99.90
31131;DHT22;20292;50.944;4.034;2022-12-16T13:44:07;5.00;99.90
31131;DHT22;20292;50.944;4.034;2022-12-16T13:46:53;5.00;99.90
31131;DHT22;20292;50.944;4.034;2022-12-16T13:49:44;4.90;99.90
31131;DHT22;20292;50.944;4.034;2022-12-16T13:52:47;5.00;99.90
31131;DHT22;20292;50.944;4.034;2022-12-16T13:55:39;5.00;99.90
31131;DHT22;20292;50.944;4.034;2022-12-16T13:58:45;5.10;99.90
31131;DHT22;20292;50.944;4.034;2022-12-16T14:01:33;5.00;99.90
31131;DHT22;20292;50.944;4.034;2022-12-16T14:04:30;5.00;99.90
31131;DHT22;20292;50.944;4.034;2022-12-16T14:07:17;4.90;99.90
31131;DHT22;20292;50.944;4.034;2022-12-16T14:10:04;4.70;99.90
31131;DHT22;20292;50.944;4.034;2022-12-16T14:13:01;4.80;99.90
31131;DHT22;20292;50.944;4.034;2022-12-16T14:16:15;4.80;99.90
31131;DHT22;20292;50.944;4.034;2022-12-16T14:25:24;4.80;99.90
31131;DHT22;20292;50.944;4.034;2022-12-16T14:28:32;4.80;99.90
31131;DHT22;20292;50.944;4.034;2022-12-16T14:31:26;4.90;99.90
31131;DHT22;20292;50.944;4.034;2022-12-16T14:34:19;4.80;99.90
31131;DHT22;20292;50.944;4.034;2022-12-16T14:37:15;4.90;99.90
31131;DHT22;20292;50.944;4.034;2022-12-16T14:40:00;4.80;99.90
31131;DHT22;20292;50.944;4.034;2022-12-16T14:42:47;4.80;99.90
31131;DHT22;20292;50.944;4.034;2022-12-16T14:45:34;4.90;99.90
31131;DHT22;20292;50.944;4.034;2022-12-16T14:48:37;5.10;99.90
31131;DHT22;20292;50.944;4.034;2022-12-16T14:51:29;5.10;99.90
31131;DHT22;20292;50.944;4.034;2022-12-16T14:57:17;4.90;99.90
31131;DHT22;20292;50.944;4.034;2022-12-16T15:02:54;5.10;99.90
31131;DHT22;20292;50.944;4.034;2022-12-16T15:05:40;5.20;99.90
31131;DHT22;20292;50.944;4.034;2022-12-16T15:08:26;5.10;99.90
31131;DHT22;20292;50.944;4.034;2022-12-16T15:11:14;5.10;99.90
31131;DHT22;20292;50.944;4.034;2022-12-16T15:13:59;5.20;99.90
31131;DHT22;20292;50.944;4.034;2022-12-16T15:16:45;5.10;99.90
31131;DHT22;20292;50.944;4.034;2022-12-16T15:19:40;5.10;99.90
31131;DHT22;20292;50.944;4.034;2022-12-16T15:22:25;5.10;99.90
31131;DHT22;20292;50.944;4.034;2022-12-16T15:25:22;5.10;99.90
31131;DHT22;20292;50.944;4.034;2022-12-16T15:28:22;5.00;99.90
31131;DHT22;20292;50.944;4.034;2022-12-16T15:31:35;5.00;99.90
31131;DHT22;20292;50.944;4.034;2022-12-16T15:34:36;4.90;99.90
31131;DHT22;20292;50.944;4.034;2022-12-16T15:37:29;4.80;99.90
31131;DHT22;20292;50.944;4.034;2022-12-16T15:40:24;4.80;99.90
31131;DHT22;20292;50.944;4.034;2022-12-16T15:43:28;4.80;99.90
31131;DHT22;20292;50.944;4.034;2022-12-16T15:46:23;4.70;99.90
31131;DHT22;20292;50.944;4.034;2022-12-16T15:49:36;4.60;99.90
31131;DHT22;20292;50.944;4.034;2022-12-16T15:52:41;4.60;99.90
31131;DHT22;20292;50.944;4.034;2022-12-16T15:55:32;4.50;99.90
31131;DHT22;20292;50.944;4.034;2022-12-16T15:58:24;4.30;99.90
31131;DHT22;20292;50.944;4.034;2022-12-16T16:01:10;4.30;99.90
31131;DHT22;20292;50.944;4.034;2022-12-16T16:03:56;4.30;99.90
31131;DHT22;20292;50.944;4.034;2022-12-16T16:06:44;4.30;99.90
31131;DHT22;20292;50.944;4.034;2022-12-16T16:09:31;4.20;99.90
31131;DHT22;20292;50.944;4.034;2022-12-16T16:12:18;4.10;99.90
31131;DHT22;20292;50.944;4.034;2022-12-16T16:15:03;4.00;99.90
31131;DHT22;20292;50.944;4.034;2022-12-16T16:17:56;4.00;99.90
31131;DHT22;20292;50.944;4.034;2022-12-16T16:20:41;3.90;99.90
31131;DHT22;20292;50.944;4.034;2022-12-16T16:23:25;3.90;99.90
31131;DHT22;20292;50.944;4.034;2022-12-16T16:26:14;3.80;99.90
31131;DHT22;20292;50.944;4.034;2022-12-16T16:28:59;3.70;99.90
31131;DHT22;20292;50.944;4.034;2022-12-16T16:31:43;3.70;99.90
31131;DHT22;20292;50.944;4.034;2022-12-16T16:34:27;3.60;99.90
31131;DHT22;20292;50.944;4.034;2022-12-16T16:37:15;3.60;99.90
31131;DHT22;20292;50.944;4.034;2022-12-16T16:40:00;3.60;99.90
31131;DHT22;20292;50.944;4.034;2022-12-16T16:42:44;3.60;99.90
31131;DHT22;20292;50.944;4.034;2022-12-16T16:45:28;3.60;99.90
31131;DHT22;20292;50.944;4.034;2022-12-16T16:48:16;3.50;99.90
31131;DHT22;20292;50.944;4.034;2022-12-16T16:51:02;3.50;99.90
31131;DHT22;20292;50.944;4.034;2022-12-16T16:53:47;3.50;99.90
31131;DHT22;20292;50.944;4.034;2022-12-16T16:56:35;3.50;99.90
31131;DHT22;20292;50.944;4.034;2022-12-16T16:59:23;3.50;99.90
31131;DHT22;20292;50.944;4.034;2022-12-16T17:02:20;3.40;99.90
31131;DHT22;20292;50.944;4.034;2022-12-16T17:05:05;3.40;99.90
31131;DHT22;20292;50.944;4.034;2022-12-16T17:07:49;3.40;99.90
31131;DHT22;20292;50.944;4.034;2022-12-16T17:10:33;3.30;99.90
31131;DHT22;20292;50.944;4.034;2022-12-16T17:13:18;3.30;99.90
31131;DHT22;20292;50.944;4.034;2022-12-16T17:16:03;3.20;99.90
31131;DHT22;20292;50.944;4.034;2022-12-16T17:18:47;3.20;99.90
31131;DHT22;20292;50.944;4.034;2022-12-16T17:21:31;3.20;99.90
31131;DHT22;20292;50.944;4.034;2022-12-16T17:24:15;3.10;99.90
31131;DHT22;20292;50.944;4.034;2022-12-16T17:27:08;3.10;99.90
31131;DHT22;20292;50.944;4.034;2022-12-16T17:29:56;3.10;99.90
31131;DHT22;20292;50.944;4.034;2022-12-16T17:32:40;3.10;99.90
31131;DHT22;20292;50.944;4.034;2022-12-16T17:35:24;3.10;99.90
31131;DHT22;20292;50.944;4.034;2022-12-16T17:38:16;3.00;99.90
31131;DHT22;20292;50.944;4.034;2022-12-16T17:41:01;2.90;99.90
31131;DHT22;20292;50.944;4.034;2022-12-16T17:43:45;2.90;99.90
31131;DHT22;20292;50.944;4.034;2022-12-16T17:46:29;2.80;99.90
31131;DHT22;20292;50.944;4.034;2022-12-16T17:49:13;2.80;99.90
31131;DHT22;20292;50.944;4.034;2022-12-16T17:51:57;2.70;99.90
31131;DHT22;20292;50.944;4.034;2022-12-16T17:54:41;2.70;99.90
31131;DHT22;20292;50.944;4.034;2022-12-16T17:57:25;2.70;99.90
31131;DHT22;20292;50.944;4.034;2022-12-16T18:00:10;2.70;99.90
31131;DHT22;20292;50.944;4.034;2022-12-16T18:02:53;2.70;99.90
31131;DHT22;20292;50.944;4.034;2022-12-16T18:05:38;2.70;99.90
31131;DHT22;20292;50.944;4.034;2022-12-16T18:08:22;2.60;99.90
31131;DHT22;20292;50.944;4.034;2022-12-16T18:11:06;2.60;99.90
31131;DHT22;20292;50.944;4.034;2022-12-16T18:13:50;2.60;99.90
31131;DHT22;20292;50.944;4.034;2022-12-16T18:16:40;2.60;99.90
31131;DHT22;20292;50.944;4.034;2022-12-16T18:19:24;2.50;99.90
31131;DHT22;20292;50.944;4.034;2022-12-16T18:22:08;2.50;99.90
31131;DHT22;20292;50.944;4.034;2022-12-16T18:24:53;2.50;99.90
31131;DHT22;20292;50.944;4.034;2022-12-16T18:27:36;2.40;99.90
31131;DHT22;20292;50.944;4.034;2022-12-16T18:30:21;2.50;99.90
31131;DHT22;20292;50.944;4.034;2022-12-16T18:33:05;2.40;99.90
31131;DHT22;20292;50.944;4.034;2022-12-16T18:35:49;2.40;99.90
31131;DHT22;20292;50.944;4.034;2022-12-16T18:38:33;2.40;99.90
31131;DHT22;20292;50.944;4.034;2022-12-16T18:41:19;2.20;99.90
31131;DHT22;20292;50.944;4.034;2022-12-16T18:44:05;2.20;99.90
31131;DHT22;20292;50.944;4.034;2022-12-16T18:46:50;2.20;99.90
31131;DHT22;20292;50.944;4.034;2022-12-16T18:49:34;2.30;99.90
31131;DHT22;20292;50.944;4.034;2022-12-16T18:52:19;2.20;99.90
31131;DHT22;20292;50.944;4.034;2022-12-16T18:55:03;2.30;99.90
31131;DHT22;20292;50.944;4.034;2022-12-16T18:57:50;2.30;99.90
31131;DHT22;20292;50.944;4.034;2022-12-16T19:00:34;2.30;99.90
31131;DHT22;20292;50.944;4.034;2022-12-16T19:03:18;2.30;99.90
31131;DHT22;20292;50.944;4.034;2022-12-16T19:06:03;2.20;99.90
31131;DHT22;20292;50.944;4.034;2022-12-16T19:08:47;2.20;99.90
31131;DHT22;20292;50.944;4.034;2022-12-16T19:11:31;2.30;99.90